Terminal Aerodrome Forecast
Issued by NWS Jackson, MS

Home | Current Version | Previous Version | Text Only | Print | Product List | Glossary On
Versions: 1 2 3 4 5 6 7 8 9 10 11 12 13 14
000
FTUS44 KJAN 262320
TAFHBG
TAF
KHBG 262320Z 2700/2724 17010KT P6SM SKC
     FM270700 00000KT P6SM OVC025
     FM271000 14002KT 3SM BR OVC010
     FM271500 13010KT P6SM BKN040
     FM271800 16013G19KT P6SM OVC250=

USA.gov is the U.S. government's official web portal to all federal, state and local government web resources and services.